sensor_id;sensor_type;location;lat;lon;timestamp;temperature;humidity
46976;DHT22;32724;51.094;6.996;2022-07-24T00:02:01;17.30;99.90
46976;DHT22;32724;51.094;6.996;2022-07-24T00:04:26;17.30;99.90
46976;DHT22;32724;51.094;6.996;2022-07-24T00:06:52;17.20;99.90
46976;DHT22;32724;51.094;6.996;2022-07-24T00:09:17;17.20;99.90
46976;DHT22;32724;51.094;6.996;2022-07-24T00:11:43;17.20;99.90
46976;DHT22;32724;51.094;6.996;2022-07-24T00:14:09;17.20;99.90
46976;DHT22;32724;51.094;6.996;2022-07-24T00:16:34;17.00;99.90
46976;DHT22;32724;51.094;6.996;2022-07-24T00:19:00;17.00;99.90
46976;DHT22;32724;51.094;6.996;2022-07-24T00:21:25;16.90;99.90
46976;DHT22;32724;51.094;6.996;2022-07-24T00:23:51;16.80;99.90
46976;DHT22;32724;51.094;6.996;2022-07-24T00:26:16;16.80;99.90
46976;DHT22;32724;51.094;6.996;2022-07-24T00:28:42;16.70;99.90
46976;DHT22;32724;51.094;6.996;2022-07-24T00:31:07;16.60;99.90
46976;DHT22;32724;51.094;6.996;2022-07-24T00:33:33;16.50;99.90
46976;DHT22;32724;51.094;6.996;2022-07-24T00:35:58;16.50;99.90
46976;DHT22;32724;51.094;6.996;2022-07-24T00:38:24;16.40;99.90
46976;DHT22;32724;51.094;6.996;2022-07-24T00:40:49;16.40;99.90
46976;DHT22;32724;51.094;6.996;2022-07-24T00:43:15;16.30;99.90
46976;DHT22;32724;51.094;6.996;2022-07-24T00:45:42;16.30;99.90
46976;DHT22;32724;51.094;6.996;2022-07-24T00:48:08;16.30;99.90
46976;DHT22;32724;51.094;6.996;2022-07-24T00:50:33;16.30;99.90
46976;DHT22;32724;51.094;6.996;2022-07-24T00:52:59;16.30;99.90
46976;DHT22;32724;51.094;6.996;2022-07-24T00:55:25;16.20;99.90
46976;DHT22;32724;51.094;6.996;2022-07-24T00:57:50;16.20;99.90
46976;DHT22;32724;51.094;6.996;2022-07-24T01:00:17;16.20;99.90
46976;DHT22;32724;51.094;6.996;2022-07-24T01:02:43;16.10;99.90
46976;DHT22;32724;51.094;6.996;2022-07-24T01:05:09;16.10;99.90
46976;DHT22;32724;51.094;6.996;2022-07-24T01:07:34;16.10;99.90
46976;DHT22;32724;51.094;6.996;2022-07-24T01:10:00;16.10;99.90
46976;DHT22;32724;51.094;6.996;2022-07-24T01:12:25;16.00;99.90
46976;DHT22;32724;51.094;6.996;2022-07-24T01:14:52;16.00;99.90
46976;DHT22;32724;51.094;6.996;2022-07-24T01:17:18;15.90;99.90
46976;DHT22;32724;51.094;6.996;2022-07-24T01:19:43;15.90;99.90
46976;DHT22;32724;51.094;6.996;2022-07-24T01:22:09;15.80;99.90
46976;DHT22;32724;51.094;6.996;2022-07-24T01:24:34;15.90;99.90
46976;DHT22;32724;51.094;6.996;2022-07-24T01:27:00;15.80;99.90
46976;DHT22;32724;51.094;6.996;2022-07-24T01:29:25;15.80;99.90
46976;DHT22;32724;51.094;6.996;2022-07-24T01:31:51;15.80;99.90
46976;DHT22;32724;51.094;6.996;2022-07-24T01:34:16;15.80;99.90
46976;DHT22;32724;51.094;6.996;2022-07-24T01:36:42;15.80;99.90
46976;DHT22;32724;51.094;6.996;2022-07-24T01:39:07;15.70;99.90
46976;DHT22;32724;51.094;6.996;2022-07-24T01:41:33;15.70;99.90
46976;DHT22;32724;51.094;6.996;2022-07-24T01:43:58;15.70;99.90
46976;DHT22;32724;51.094;6.996;2022-07-24T01:46:24;15.60;99.90
46976;DHT22;32724;51.094;6.996;2022-07-24T01:48:49;15.60;99.90
46976;DHT22;32724;51.094;6.996;2022-07-24T01:51:15;15.60;99.90
46976;DHT22;32724;51.094;6.996;2022-07-24T01:53:40;15.60;99.90
46976;DHT22;32724;51.094;6.996;2022-07-24T01:56:06;15.50;99.90
46976;DHT22;32724;51.094;6.996;2022-07-24T01:58:31;15.50;99.90
46976;DHT22;32724;51.094;6.996;2022-07-24T02:00:57;15.50;99.90
46976;DHT22;32724;51.094;6.996;2022-07-24T02:03:22;15.50;99.90
46976;DHT22;32724;51.094;6.996;2022-07-24T02:05:48;15.40;99.90
46976;DHT22;32724;51.094;6.996;2022-07-24T02:08:13;15.40;99.90
46976;DHT22;32724;51.094;6.996;2022-07-24T02:10:39;15.40;99.90
46976;DHT22;32724;51.094;6.996;2022-07-24T02:13:05;15.40;99.90
46976;DHT22;32724;51.094;6.996;2022-07-24T02:15:31;15.40;99.90
46976;DHT22;32724;51.094;6.996;2022-07-24T02:17:58;15.40;99.90
46976;DHT22;32724;51.094;6.996;2022-07-24T02:20:24;15.40;99.90
46976;DHT22;32724;51.094;6.996;2022-07-24T02:22:49;15.40;99.90
46976;DHT22;32724;51.094;6.996;2022-07-24T02:25:15;15.40;99.90
46976;DHT22;32724;51.094;6.996;2022-07-24T02:27:40;15.40;99.90
46976;DHT22;32724;51.094;6.996;2022-07-24T02:30:07;15.40;99.90
46976;DHT22;32724;51.094;6.996;2022-07-24T02:32:33;15.40;99.90
46976;DHT22;32724;51.094;6.996;2022-07-24T02:34:58;15.40;99.90
46976;DHT22;32724;51.094;6.996;2022-07-24T02:37:24;15.50;99.90
46976;DHT22;32724;51.094;6.996;2022-07-24T02:39:49;15.50;99.90
46976;DHT22;32724;51.094;6.996;2022-07-24T02:42:14;15.50;99.90
46976;DHT22;32724;51.094;6.996;2022-07-24T02:44:40;15.50;99.90
46976;DHT22;32724;51.094;6.996;2022-07-24T02:47:05;15.50;99.90
46976;DHT22;32724;51.094;6.996;2022-07-24T02:49:31;15.50;99.90
46976;DHT22;32724;51.094;6.996;2022-07-24T02:51:56;15.50;99.90
46976;DHT22;32724;51.094;6.996;2022-07-24T02:54:22;15.50;99.90
46976;DHT22;32724;51.094;6.996;2022-07-24T02:56:47;15.50;99.90
46976;DHT22;32724;51.094;6.996;2022-07-24T02:59:13;15.50;99.90
46976;DHT22;32724;51.094;6.996;2022-07-24T03:01:39;15.50;99.90
46976;DHT22;32724;51.094;6.996;2022-07-24T03:04:05;15.50;99.90
46976;DHT22;32724;51.094;6.996;2022-07-24T03:06:30;15.50;99.90
46976;DHT22;32724;51.094;6.996;2022-07-24T03:08:56;15.50;99.90
46976;DHT22;32724;51.094;6.996;2022-07-24T03:11:21;15.50;99.90
46976;DHT22;32724;51.094;6.996;2022-07-24T03:13:47;15.50;99.90
46976;DHT22;32724;51.094;6.996;2022-07-24T03:16:12;15.50;99.90
46976;DHT22;32724;51.094;6.996;2022-07-24T03:18:38;15.60;99.90
46976;DHT22;32724;51.094;6.996;2022-07-24T03:21:03;15.60;99.90
46976;DHT22;32724;51.094;6.996;2022-07-24T03:23:29;15.60;99.90
46976;DHT22;32724;51.094;6.996;2022-07-24T03:25:54;15.50;99.90
46976;DHT22;32724;51.094;6.996;2022-07-24T03:28:20;15.60;99.90
46976;DHT22;32724;51.094;6.996;2022-07-24T03:30:45;15.60;99.90
46976;DHT22;32724;51.094;6.996;2022-07-24T03:33:11;15.50;99.90
46976;DHT22;32724;51.094;6.996;2022-07-24T03:35:37;15.50;99.90
46976;DHT22;32724;51.094;6.996;2022-07-24T03:38:02;15.50;99.90
46976;DHT22;32724;51.094;6.996;2022-07-24T03:40:28;15.50;99.90
46976;DHT22;32724;51.094;6.996;2022-07-24T03:42:54;15.50;99.90
46976;DHT22;32724;51.094;6.996;2022-07-24T03:45:19;15.50;99.90
46976;DHT22;32724;51.094;6.996;2022-07-24T03:47:45;15.50;99.90
46976;DHT22;32724;51.094;6.996;2022-07-24T03:50:10;15.50;99.90
46976;DHT22;32724;51.094;6.996;2022-07-24T03:52:36;15.50;99.90
46976;DHT22;32724;51.094;6.996;2022-07-24T03:55:01;15.50;99.90
46976;DHT22;32724;51.094;6.996;2022-07-24T03:57:27;15.50;99.90
46976;DHT22;32724;51.094;6.996;2022-07-24T03:59:52;15.60;99.90
46976;DHT22;32724;51.094;6.996;2022-07-24T04:02:18;15.60;99.90
46976;DHT22;32724;51.094;6.996;2022-07-24T04:04:43;15.60;99.90
46976;DHT22;32724;51.094;6.996;2022-07-24T04:07:09;15.60;99.90
46976;DHT22;32724;51.094;6.996;2022-07-24T04:09:34;15.70;99.90
46976;DHT22;32724;51.094;6.996;2022-07-24T04:12:00;15.80;99.90
46976;DHT22;32724;51.094;6.996;2022-07-24T04:14:25;15.90;99.90
46976;DHT22;32724;51.094;6.996;2022-07-24T04:16:51;15.90;99.90
46976;DHT22;32724;51.094;6.996;2022-07-24T04:19:16;16.00;99.90
46976;DHT22;32724;51.094;6.996;2022-07-24T04:21:42;16.10;99.90
46976;DHT22;32724;51.094;6.996;2022-07-24T04:24:07;16.00;99.90
46976;DHT22;32724;51.094;6.996;2022-07-24T04:26:33;16.10;99.90
46976;DHT22;32724;51.094;6.996;2022-07-24T04:28:58;16.10;99.90
46976;DHT22;32724;51.094;6.996;2022-07-24T04:31:24;16.10;99.90
46976;DHT22;32724;51.094;6.996;2022-07-24T04:33:49;16.10;99.90
46976;DHT22;32724;51.094;6.996;2022-07-24T04:36:15;16.10;99.90
46976;DHT22;32724;51.094;6.996;2022-07-24T04:38:40;16.10;99.90
46976;DHT22;32724;51.094;6.996;2022-07-24T04:41:06;16.10;99.90
46976;DHT22;32724;51.094;6.996;2022-07-24T04:43:31;16.20;99.90
46976;DHT22;32724;51.094;6.996;2022-07-24T04:45:57;16.20;99.90
46976;DHT22;32724;51.094;6.996;2022-07-24T04:48:22;16.40;99.90
46976;DHT22;32724;51.094;6.996;2022-07-24T04:50:50;16.40;99.90
46976;DHT22;32724;51.094;6.996;2022-07-24T04:53:15;16.60;99.90
46976;DHT22;32724;51.094;6.996;2022-07-24T04:55:41;16.70;99.90
46976;DHT22;32724;51.094;6.996;2022-07-24T04:58:06;16.80;99.90
46976;DHT22;32724;51.094;6.996;2022-07-24T05:00:32;16.80;99.90
46976;DHT22;32724;51.094;6.996;2022-07-24T05:02:57;17.00;99.90
46976;DHT22;32724;51.094;6.996;2022-07-24T05:05:23;17.10;99.90
46976;DHT22;32724;51.094;6.996;2022-07-24T05:07:48;17.20;99.90
46976;DHT22;32724;51.094;6.996;2022-07-24T05:10:14;17.30;99.90
46976;DHT22;32724;51.094;6.996;2022-07-24T05:12:39;17.50;99.90
46976;DHT22;32724;51.094;6.996;2022-07-24T05:15:05;17.70;99.90
46976;DHT22;32724;51.094;6.996;2022-07-24T05:17:31;17.90;99.90
46976;DHT22;32724;51.094;6.996;2022-07-24T05:19:56;18.10;99.90
46976;DHT22;32724;51.094;6.996;2022-07-24T05:22:22;18.50;99.90
46976;DHT22;32724;51.094;6.996;2022-07-24T05:24:47;19.40;99.90
46976;DHT22;32724;51.094;6.996;2022-07-24T05:27:13;20.40;99.90
46976;DHT22;32724;51.094;6.996;2022-07-24T05:29:38;21.30;99.90
46976;DHT22;32724;51.094;6.996;2022-07-24T05:32:04;22.10;99.90
46976;DHT22;32724;51.094;6.996;2022-07-24T05:34:30;22.40;99.90
46976;DHT22;32724;51.094;6.996;2022-07-24T05:36:55;22.60;99.90
46976;DHT22;32724;51.094;6.996;2022-07-24T05:39:21;22.70;99.90
46976;DHT22;32724;51.094;6.996;2022-07-24T05:41:46;23.10;99.90
46976;DHT22;32724;51.094;6.996;2022-07-24T05:44:12;23.40;99.90
46976;DHT22;32724;51.094;6.996;2022-07-24T05:46:37;23.60;99.90
46976;DHT22;32724;51.094;6.996;2022-07-24T05:49:02;23.80;99.90
46976;DHT22;32724;51.094;6.996;2022-07-24T05:51:28;24.20;99.90
46976;DHT22;32724;51.094;6.996;2022-07-24T05:53:53;24.30;99.90
46976;DHT22;32724;51.094;6.996;2022-07-24T05:56:19;24.10;99.90
46976;DHT22;32724;51.094;6.996;2022-07-24T05:58:44;24.00;99.90
46976;DHT22;32724;51.094;6.996;2022-07-24T06:01:10;24.00;99.90
46976;DHT22;32724;51.094;6.996;2022-07-24T06:03:36;24.20;99.90
46976;DHT22;32724;51.094;6.996;2022-07-24T06:06:04;24.30;99.90
46976;DHT22;32724;51.094;6.996;2022-07-24T06:08:29;24.30;99.90
46976;DHT22;32724;51.094;6.996;2022-07-24T06:10:55;24.20;99.90
46976;DHT22;32724;51.094;6.996;2022-07-24T06:13:20;24.80;99.90
46976;DHT22;32724;51.094;6.996;2022-07-24T06:15:46;25.00;99.90
46976;DHT22;32724;51.094;6.996;2022-07-24T06:18:12;24.90;99.90
46976;DHT22;32724;51.094;6.996;2022-07-24T06:20:38;25.30;99.90
46976;DHT22;32724;51.094;6.996;2022-07-24T06:23:03;26.10;99.90
46976;DHT22;32724;51.094;6.996;2022-07-24T06:25:29;26.50;99.90
46976;DHT22;32724;51.094;6.996;2022-07-24T06:27:54;27.30;99.90
46976;DHT22;32724;51.094;6.996;2022-07-24T06:30:22;27.60;99.90
46976;DHT22;32724;51.094;6.996;2022-07-24T06:32:48;27.90;99.90
46976;DHT22;32724;51.094;6.996;2022-07-24T06:35:14;28.00;99.90
46976;DHT22;32724;51.094;6.996;2022-07-24T06:37:40;28.40;99.90
46976;DHT22;32724;51.094;6.996;2022-07-24T06:40:06;28.50;99.90
46976;DHT22;32724;51.094;6.996;2022-07-24T06:42:32;28.90;99.90
46976;DHT22;32724;51.094;6.996;2022-07-24T06:44:58;29.30;99.90
46976;DHT22;32724;51.094;6.996;2022-07-24T06:47:23;29.10;99.90
46976;DHT22;32724;51.094;6.996;2022-07-24T06:49:51;28.50;99.90
46976;DHT22;32724;51.094;6.996;2022-07-24T06:52:17;28.50;99.90
46976;DHT22;32724;51.094;6.996;2022-07-24T06:54:42;28.60;99.90
46976;DHT22;32724;51.094;6.996;2022-07-24T06:57:08;28.10;99.90
46976;DHT22;32724;51.094;6.996;2022-07-24T06:59:33;28.10;99.90
46976;DHT22;32724;51.094;6.996;2022-07-24T07:01:59;27.90;99.90
46976;DHT22;32724;51.094;6.996;2022-07-24T07:04:24;28.20;99.90
46976;DHT22;32724;51.094;6.996;2022-07-24T07:06:50;28.40;99.90
46976;DHT22;32724;51.094;6.996;2022-07-24T07:09:15;28.20;99.90
46976;DHT22;32724;51.094;6.996;2022-07-24T07:11:41;28.10;99.90
46976;DHT22;32724;51.094;6.996;2022-07-24T07:14:06;28.10;99.90
46976;DHT22;32724;51.094;6.996;2022-07-24T07:16:32;27.50;99.90
46976;DHT22;32724;51.094;6.996;2022-07-24T07:18:57;27.30;99.90
46976;DHT22;32724;51.094;6.996;2022-07-24T07:21:23;27.30;99.90
46976;DHT22;32724;51.094;6.996;2022-07-24T07:23:48;27.20;99.90
46976;DHT22;32724;51.094;6.996;2022-07-24T07:26:14;27.00;99.90
46976;DHT22;32724;51.094;6.996;2022-07-24T07:28:39;26.70;99.90
46976;DHT22;32724;51.094;6.996;2022-07-24T07:31:04;26.60;99.90
46976;DHT22;32724;51.094;6.996;2022-07-24T07:33:30;26.60;99.90
46976;DHT22;32724;51.094;6.996;2022-07-24T07:35:55;26.40;99.90
46976;DHT22;32724;51.094;6.996;2022-07-24T07:38:21;26.20;99.90
46976;DHT22;32724;51.094;6.996;2022-07-24T07:40:46;25.80;99.90
46976;DHT22;32724;51.094;6.996;2022-07-24T07:43:12;25.70;99.90
46976;DHT22;32724;51.094;6.996;2022-07-24T07:45:37;25.80;99.90
46976;DHT22;32724;51.094;6.996;2022-07-24T07:48:03;25.80;99.90
46976;DHT22;32724;51.094;6.996;2022-07-24T07:50:29;25.70;99.90
46976;DHT22;32724;51.094;6.996;2022-07-24T07:52:54;25.80;99.90
46976;DHT22;32724;51.094;6.996;2022-07-24T07:55:20;25.90;99.90
46976;DHT22;32724;51.094;6.996;2022-07-24T07:57:45;25.90;99.90
46976;DHT22;32724;51.094;6.996;2022-07-24T08:00:11;26.10;99.90
46976;DHT22;32724;51.094;6.996;2022-07-24T08:02:37;26.00;99.90
46976;DHT22;32724;51.094;6.996;2022-07-24T08:05:02;25.90;99.90
46976;DHT22;32724;51.094;6.996;2022-07-24T08:07:28;26.10;99.90
46976;DHT22;32724;51.094;6.996;2022-07-24T08:09:53;26.30;99.90
46976;DHT22;32724;51.094;6.996;2022-07-24T08:12:19;25.90;99.90
46976;DHT22;32724;51.094;6.996;2022-07-24T08:14:44;25.30;99.90
46976;DHT22;32724;51.094;6.996;2022-07-24T08:17:10;24.90;99.90
46976;DHT22;32724;51.094;6.996;2022-07-24T08:19:37;25.10;99.90
46976;DHT22;32724;51.094;6.996;2022-07-24T08:22:02;25.10;99.90
46976;DHT22;32724;51.094;6.996;2022-07-24T08:24:29;25.10;99.90
46976;DHT22;32724;51.094;6.996;2022-07-24T08:26:57;24.90;99.90
46976;DHT22;32724;51.094;6.996;2022-07-24T08:29:23;24.70;99.90
46976;DHT22;32724;51.094;6.996;2022-07-24T08:31:48;24.40;99.90
46976;DHT22;32724;51.094;6.996;2022-07-24T08:34:14;24.90;99.90
46976;DHT22;32724;51.094;6.996;2022-07-24T08:36:39;25.30;99.90
46976;DHT22;32724;51.094;6.996;2022-07-24T08:39:05;25.90;99.90
46976;DHT22;32724;51.094;6.996;2022-07-24T08:41:31;26.30;99.90
46976;DHT22;32724;51.094;6.996;2022-07-24T08:44:01;26.70;99.90
46976;DHT22;32724;51.094;6.996;2022-07-24T08:46:27;26.90;99.90
46976;DHT22;32724;51.094;6.996;2022-07-24T08:48:53;26.90;99.90
46976;DHT22;32724;51.094;6.996;2022-07-24T08:51:20;27.20;99.90
46976;DHT22;32724;51.094;6.996;2022-07-24T08:53:46;27.30;99.90
46976;DHT22;32724;51.094;6.996;2022-07-24T08:56:12;27.50;99.90
46976;DHT22;32724;51.094;6.996;2022-07-24T08:58:39;27.50;99.90
46976;DHT22;32724;51.094;6.996;2022-07-24T09:01:05;27.70;99.90
46976;DHT22;32724;51.094;6.996;2022-07-24T09:03:40;27.90;99.90
46976;DHT22;32724;51.094;6.996;2022-07-24T09:06:07;28.00;99.90
46976;DHT22;32724;51.094;6.996;2022-07-24T09:08:33;28.10;99.90
46976;DHT22;32724;51.094;6.996;2022-07-24T09:11:00;28.10;99.90
46976;DHT22;32724;51.094;6.996;2022-07-24T09:13:26;28.00;99.90
46976;DHT22;32724;51.094;6.996;2022-07-24T09:15:52;28.00;99.90
46976;DHT22;32724;51.094;6.996;2022-07-24T09:18:25;27.80;99.90
46976;DHT22;32724;51.094;6.996;2022-07-24T09:20:50;27.80;99.90
46976;DHT22;32724;51.094;6.996;2022-07-24T09:23:18;27.90;99.90
46976;DHT22;32724;51.094;6.996;2022-07-24T09:25:48;28.10;99.90
46976;DHT22;32724;51.094;6.996;2022-07-24T09:28:14;28.20;99.90
46976;DHT22;32724;51.094;6.996;2022-07-24T09:30:43;28.20;99.90
46976;DHT22;32724;51.094;6.996;2022-07-24T09:35:42;27.80;99.90
46976;DHT22;32724;51.094;6.996;2022-07-24T09:38:08;27.70;99.90
46976;DHT22;32724;51.094;6.996;2022-07-24T09:40:35;27.90;99.90
46976;DHT22;32724;51.094;6.996;2022-07-24T09:46:01;28.20;99.90
46976;DHT22;32724;51.094;6.996;2022-07-24T09:50:56;28.40;99.90
46976;DHT22;32724;51.094;6.996;2022-07-24T09:53:23;28.50;99.90
46976;DHT22;32724;51.094;6.996;2022-07-24T09:55:56;28.10;99.90
46976;DHT22;32724;51.094;6.996;2022-07-24T09:58:22;28.20;99.90
46976;DHT22;32724;51.094;6.996;2022-07-24T10:00:47;28.30;99.90
46976;DHT22;32724;51.094;6.996;2022-07-24T10:03:14;28.40;99.90
46976;DHT22;32724;51.094;6.996;2022-07-24T10:05:43;28.60;99.90
46976;DHT22;32724;51.094;6.996;2022-07-24T10:08:11;28.80;99.90
46976;DHT22;32724;51.094;6.996;2022-07-24T10:10:38;28.90;99.90
46976;DHT22;32724;51.094;6.996;2022-07-24T10:13:06;29.00;99.90
46976;DHT22;32724;51.094;6.996;2022-07-24T10:15:31;29.10;99.90
46976;DHT22;32724;51.094;6.996;2022-07-24T10:20:36;29.40;99.90
46976;DHT22;32724;51.094;6.996;2022-07-24T10:23:04;29.30;99.90
46976;DHT22;32724;51.094;6.996;2022-07-24T10:25:30;29.30;99.90
46976;DHT22;32724;51.094;6.996;2022-07-24T10:28:01;29.40;99.90
46976;DHT22;32724;51.094;6.996;2022-07-24T10:30:27;29.30;99.90
46976;DHT22;32724;51.094;6.996;2022-07-24T10:32:53;29.40;99.90
46976;DHT22;32724;51.094;6.996;2022-07-24T10:35:22;29.70;99.90
46976;DHT22;32724;51.094;6.996;2022-07-24T10:40:23;29.70;99.90
46976;DHT22;32724;51.094;6.996;2022-07-24T10:45:37;30.00;99.60
46976;DHT22;32724;51.094;6.996;2022-07-24T10:53:21;30.40;97.90
46976;DHT22;32724;51.094;6.996;2022-07-24T10:55:47;30.40;98.60
46976;DHT22;32724;51.094;6.996;2022-07-24T10:58:13;30.50;98.60
46976;DHT22;32724;51.094;6.996;2022-07-24T11:00:44;30.60;96.10
46976;DHT22;32724;51.094;6.996;2022-07-24T11:03:17;30.70;96.20
46976;DHT22;32724;51.094;6.996;2022-07-24T11:05:43;30.20;96.60
46976;DHT22;32724;51.094;6.996;2022-07-24T11:10:53;30.00;96.10
46976;DHT22;32724;51.094;6.996;2022-07-24T11:18:37;30.30;97.50
46976;DHT22;32724;51.094;6.996;2022-07-24T11:21:02;30.50;94.80
46976;DHT22;32724;51.094;6.996;2022-07-24T11:23:28;30.20;93.40
46976;DHT22;32724;51.094;6.996;2022-07-24T11:28:37;29.70;94.10
46976;DHT22;32724;51.094;6.996;2022-07-24T11:31:03;29.70;95.20
46976;DHT22;32724;51.094;6.996;2022-07-24T11:33:29;29.80;95.00
46976;DHT22;32724;51.094;6.996;2022-07-24T11:35:54;30.00;95.80
46976;DHT22;32724;51.094;6.996;2022-07-24T11:38:20;29.80;92.80
46976;DHT22;32724;51.094;6.996;2022-07-24T11:40:52;29.80;96.70
46976;DHT22;32724;51.094;6.996;2022-07-24T11:43:29;30.10;95.50
46976;DHT22;32724;51.094;6.996;2022-07-24T11:45:54;30.20;93.20
46976;DHT22;32724;51.094;6.996;2022-07-24T11:48:20;29.90;94.00
46976;DHT22;32724;51.094;6.996;2022-07-24T11:50:45;30.20;95.50
46976;DHT22;32724;51.094;6.996;2022-07-24T11:53:11;30.40;92.50
46976;DHT22;32724;51.094;6.996;2022-07-24T11:55:37;30.60;92.70
46976;DHT22;32724;51.094;6.996;2022-07-24T11:58:02;30.80;92.80
46976;DHT22;32724;51.094;6.996;2022-07-24T12:00:28;30.90;94.50
46976;DHT22;32724;51.094;6.996;2022-07-24T12:02:55;31.00;91.20
46976;DHT22;32724;51.094;6.996;2022-07-24T12:05:35;31.20;93.60
46976;DHT22;32724;51.094;6.996;2022-07-24T12:08:04;31.00;91.40
46976;DHT22;32724;51.094;6.996;2022-07-24T12:10:39;30.80;90.90
46976;DHT22;32724;51.094;6.996;2022-07-24T12:13:05;30.60;90.70
46976;DHT22;32724;51.094;6.996;2022-07-24T12:15:30;30.80;91.60
46976;DHT22;32724;51.094;6.996;2022-07-24T12:18:00;31.00;91.20
46976;DHT22;32724;51.094;6.996;2022-07-24T12:20:33;31.20;90.50
46976;DHT22;32724;51.094;6.996;2022-07-24T12:22:59;31.00;88.90
46976;DHT22;32724;51.094;6.996;2022-07-24T12:25:25;31.10;92.60
46976;DHT22;32724;51.094;6.996;2022-07-24T12:28:01;30.90;87.60
46976;DHT22;32724;51.094;6.996;2022-07-24T12:30:27;30.90;89.70
46976;DHT22;32724;51.094;6.996;2022-07-24T12:32:57;31.00;90.50
46976;DHT22;32724;51.094;6.996;2022-07-24T12:35:23;31.10;90.30
46976;DHT22;32724;51.094;6.996;2022-07-24T12:37:50;31.20;89.60
46976;DHT22;32724;51.094;6.996;2022-07-24T12:40:23;31.00;87.80
46976;DHT22;32724;51.094;6.996;2022-07-24T12:42:55;30.90;89.70
46976;DHT22;32724;51.094;6.996;2022-07-24T12:45:21;30.90;90.70
46976;DHT22;32724;51.094;6.996;2022-07-24T12:48:05;30.90;90.20
46976;DHT22;32724;51.094;6.996;2022-07-24T12:50:30;31.00;88.20
46976;DHT22;32724;51.094;6.996;2022-07-24T12:53:03;31.00;88.60
46976;DHT22;32724;51.094;6.996;2022-07-24T12:55:28;31.20;85.90
46976;DHT22;32724;51.094;6.996;2022-07-24T12:58:00;31.10;85.70
46976;DHT22;32724;51.094;6.996;2022-07-24T13:00:26;31.10;86.70
46976;DHT22;32724;51.094;6.996;2022-07-24T13:02:52;31.20;86.20
46976;DHT22;32724;51.094;6.996;2022-07-24T13:05:35;31.30;90.80
46976;DHT22;32724;51.094;6.996;2022-07-24T13:08:01;31.40;85.40
46976;DHT22;32724;51.094;6.996;2022-07-24T13:10:26;31.50;89.70
46976;DHT22;32724;51.094;6.996;2022-07-24T13:12:52;31.30;83.70
46976;DHT22;32724;51.094;6.996;2022-07-24T13:15:18;31.20;81.90
46976;DHT22;32724;51.094;6.996;2022-07-24T13:17:43;31.30;82.70
46976;DHT22;32724;51.094;6.996;2022-07-24T13:20:09;31.40;86.80
46976;DHT22;32724;51.094;6.996;2022-07-24T13:22:34;31.60;87.00
46976;DHT22;32724;51.094;6.996;2022-07-24T13:25:00;31.50;86.00
46976;DHT22;32724;51.094;6.996;2022-07-24T13:27:26;31.20;85.10
46976;DHT22;32724;51.094;6.996;2022-07-24T13:29:51;31.20;86.50
46976;DHT22;32724;51.094;6.996;2022-07-24T13:32:17;31.10;84.50
46976;DHT22;32724;51.094;6.996;2022-07-24T13:34:42;31.10;83.60
46976;DHT22;32724;51.094;6.996;2022-07-24T13:37:08;31.00;84.20
46976;DHT22;32724;51.094;6.996;2022-07-24T13:39:33;30.90;84.30
46976;DHT22;32724;51.094;6.996;2022-07-24T13:42:01;30.70;83.40
46976;DHT22;32724;51.094;6.996;2022-07-24T13:44:26;30.50;84.30
46976;DHT22;32724;51.094;6.996;2022-07-24T13:46:52;30.50;85.10
46976;DHT22;32724;51.094;6.996;2022-07-24T13:49:17;30.50;86.80
46976;DHT22;32724;51.094;6.996;2022-07-24T13:51:43;30.60;84.80
46976;DHT22;32724;51.094;6.996;2022-07-24T13:54:08;30.60;86.00
46976;DHT22;32724;51.094;6.996;2022-07-24T13:56:34;30.60;84.20
46976;DHT22;32724;51.094;6.996;2022-07-24T13:58:59;30.60;84.70
46976;DHT22;32724;51.094;6.996;2022-07-24T14:01:25;30.60;84.10
46976;DHT22;32724;51.094;6.996;2022-07-24T14:03:51;30.60;88.50
46976;DHT22;32724;51.094;6.996;2022-07-24T14:06:16;30.60;89.50
46976;DHT22;32724;51.094;6.996;2022-07-24T14:08:42;30.70;84.80
46976;DHT22;32724;51.094;6.996;2022-07-24T14:11:08;30.70;85.90
46976;DHT22;32724;51.094;6.996;2022-07-24T14:13:34;30.70;84.10
46976;DHT22;32724;51.094;6.996;2022-07-24T14:15:59;30.50;85.10
46976;DHT22;32724;51.094;6.996;2022-07-24T14:18:25;30.60;85.40
46976;DHT22;32724;51.094;6.996;2022-07-24T14:20:50;30.80;84.90
46976;DHT22;32724;51.094;6.996;2022-07-24T14:23:16;31.00;85.30
46976;DHT22;32724;51.094;6.996;2022-07-24T14:25:42;31.00;87.10
46976;DHT22;32724;51.094;6.996;2022-07-24T14:28:08;31.20;86.10
46976;DHT22;32724;51.094;6.996;2022-07-24T14:30:33;31.30;83.90
46976;DHT22;32724;51.094;6.996;2022-07-24T14:32:59;31.40;84.80
46976;DHT22;32724;51.094;6.996;2022-07-24T14:35:24;31.30;81.60
46976;DHT22;32724;51.094;6.996;2022-07-24T14:37:50;31.20;82.20
46976;DHT22;32724;51.094;6.996;2022-07-24T14:40:15;30.90;82.00
46976;DHT22;32724;51.094;6.996;2022-07-24T14:42:41;30.70;81.80
46976;DHT22;32724;51.094;6.996;2022-07-24T14:45:07;30.80;83.40
46976;DHT22;32724;51.094;6.996;2022-07-24T14:47:34;31.00;84.50
46976;DHT22;32724;51.094;6.996;2022-07-24T14:50:00;31.20;80.50
46976;DHT22;32724;51.094;6.996;2022-07-24T14:52:25;31.20;79.30
46976;DHT22;32724;51.094;6.996;2022-07-24T14:54:51;31.10;79.50
46976;DHT22;32724;51.094;6.996;2022-07-24T14:57:17;31.20;82.60
46976;DHT22;32724;51.094;6.996;2022-07-24T14:59:42;31.30;83.00
46976;DHT22;32724;51.094;6.996;2022-07-24T15:02:08;31.30;79.00
46976;DHT22;32724;51.094;6.996;2022-07-24T15:04:34;31.40;82.30
46976;DHT22;32724;51.094;6.996;2022-07-24T15:07:00;31.30;82.70
46976;DHT22;32724;51.094;6.996;2022-07-24T15:09:25;31.00;81.90
46976;DHT22;32724;51.094;6.996;2022-07-24T15:11:50;31.20;81.90
46976;DHT22;32724;51.094;6.996;2022-07-24T15:14:16;31.30;81.60
46976;DHT22;32724;51.094;6.996;2022-07-24T15:16:41;31.40;80.50
46976;DHT22;32724;51.094;6.996;2022-07-24T15:19:07;31.50;83.30
46976;DHT22;32724;51.094;6.996;2022-07-24T15:21:33;31.60;81.90
46976;DHT22;32724;51.094;6.996;2022-07-24T15:23:59;31.60;80.00
46976;DHT22;32724;51.094;6.996;2022-07-24T15:26:24;31.60;80.60
46976;DHT22;32724;51.094;6.996;2022-07-24T15:28:50;31.60;78.90
46976;DHT22;32724;51.094;6.996;2022-07-24T15:31:15;31.40;78.80
46976;DHT22;32724;51.094;6.996;2022-07-24T15:33:45;31.50;76.40
46976;DHT22;32724;51.094;6.996;2022-07-24T15:36:10;31.50;76.50
46976;DHT22;32724;51.094;6.996;2022-07-24T15:38:36;31.60;78.60
46976;DHT22;32724;51.094;6.996;2022-07-24T15:41:01;31.50;78.90
46976;DHT22;32724;51.094;6.996;2022-07-24T15:43:27;31.40;77.00
46976;DHT22;32724;51.094;6.996;2022-07-24T15:45:52;31.20;77.20
46976;DHT22;32724;51.094;6.996;2022-07-24T15:48:18;31.00;78.70
46976;DHT22;32724;51.094;6.996;2022-07-24T15:50:43;31.00;78.10
46976;DHT22;32724;51.094;6.996;2022-07-24T15:53:09;30.80;79.20
46976;DHT22;32724;51.094;6.996;2022-07-24T15:55:34;30.70;79.10